Time;durP1;ratioP1;P1;durP2;ratioP2;P2;SDS_P1;SDS_P2;PMS_P1;PMS_P2;Temp;Humidity;BMP_temperature;BMP_pressure;BME280_temperature;BME280_humidity;BME280_pressure;Samples;Min_cycle;Max_cycle;Signal;HPM_P1;HPM_P2
2023/06/15 00:00:31;;;;;;;11.32;8.20;;;;;;;12.59;95.11;93774.63;4995394;28;20514;-56
2023/06/15 00:02:58;;;;;;;11.75;7.82;;;;;;;12.70;94.30;93779.88;5000690;28;20046;-59
2023/06/15 00:05:25;;;;;;;12.82;8.10;;;;;;;12.58;95.35;93775.84;5004146;28;20042;-55
2023/06/15 00:07:52;;;;;;;11.00;7.90;;;;;;;12.22;98.14;93780.69;5017022;28;20037;-57
2023/06/15 00:10:19;;;;;;;14.80;9.48;;;;;;;12.34;96.97;93778.00;5030355;28;20038;-57
2023/06/15 00:12:46;;;;;;;12.43;8.85;;;;;;;12.39;96.62;93787.72;4999937;28;20088;-56
2023/06/15 00:15:12;;;;;;;10.90;8.00;;;;;;;12.10;99.29;93790.38;5015750;28;20045;-60
2023/06/15 00:17:42;;;;;;;11.05;8.40;;;;;;;12.09;99.92;93786.88;5027462;28;20508;-57
2023/06/15 00:20:12;;;;;;;12.97;8.70;;;;;;;12.01;100.00;93795.69;5026479;28;20045;-57
2023/06/15 00:22:41;;;;;;;11.35;8.65;;;;;;;12.16;99.87;93792.19;5014717;28;20088;-57
2023/06/15 00:25:08;;;;;;;12.18;8.70;;;;;;;12.14;100.00;93800.09;5020400;28;20044;-59
2023/06/15 00:27:35;;;;;;;11.75;7.93;;;;;;;12.31;99.42;93798.13;5021018;28;20109;-60
2023/06/15 00:30:04;;;;;;;10.07;7.72;;;;;;;12.51;98.18;93800.03;5033491;28;20154;-57
2023/06/15 00:32:30;;;;;;;10.27;7.57;;;;;;;12.47;97.93;93804.84;5029123;28;20045;-55
2023/06/15 00:34:57;;;;;;;12.88;8.02;;;;;;;12.61;96.99;93800.97;5032927;28;20462;-56
2023/06/15 00:37:24;;;;;;;11.98;7.60;;;;;;;12.42;98.32;93800.63;5019187;28;20111;-54
2023/06/15 00:39:51;;;;;;;10.65;7.90;;;;;;;12.52;97.64;93798.84;5010878;28;20410;-59
2023/06/15 00:42:18;;;;;;;17.52;12.07;;;;;;;12.56;96.71;93802.28;5023232;28;20041;-60
2023/06/15 00:44:44;;;;;;;10.87;8.47;;;;;;;12.58;96.05;93799.84;4999954;28;20077;-58
2023/06/15 00:47:11;;;;;;;12.68;8.20;;;;;;;12.53;96.39;93800.38;5030365;28;20041;-61
2023/06/15 00:49:38;;;;;;;12.25;8.13;;;;;;;12.58;95.92;93805.38;5028835;28;20046;-54
2023/06/15 00:52:05;;;;;;;11.52;7.68;;;;;;;12.58;95.75;93803.38;5019388;28;20083;-57
2023/06/15 00:54:33;;;;;;;12.88;8.20;;;;;;;12.55;96.02;93806.22;5030770;28;20403;-57
2023/06/15 00:57:01;;;;;;;12.27;7.80;;;;;;;12.56;96.03;93802.28;5030054;28;20049;-59
2023/06/15 00:59:28;;;;;;;11.38;7.88;;;;;;;12.50;96.39;93798.50;5030030;28;20657;-61
2023/06/15 01:01:55;;;;;;;10.27;8.30;;;;;;;12.17;99.37;93796.50;5029946;28;20037;-63
2023/06/15 01:04:26;;;;;;;10.77;8.02;;;;;;;12.06;100.00;93801.47;5010822;28;20042;-56
2023/06/15 01:06:56;;;;;;;11.32;8.52;;;;;;;12.18;100.00;93806.28;5023191;28;20036;-56
2023/06/15 01:09:25;;;;;;;12.80;8.50;;;;;;;12.05;100.00;93804.63;5030575;28;20045;-57
2023/06/15 01:11:55;;;;;;;11.68;8.50;;;;;;;12.12;100.00;93797.00;5008052;28;20119;-60
2023/06/15 01:14:24;;;;;;;11.73;8.57;;;;;;;12.18;100.00;93786.28;5023071;28;20114;-55
2023/06/15 01:16:57;;;;;;;15.05;8.20;;;;;;;12.19;100.00;93796.06;5029296;28;20059;-56
2023/06/15 01:19:53;;;;;;;12.93;8.43;;;;;;;12.15;100.00;93795.38;4996705;28;20077;-57
2023/06/15 01:22:55;;;;;;;12.40;8.20;;;;;;;12.18;100.00;93795.28;4989096;28;21585;-62
2023/06/15 01:25:33;;;;;;;10.38;7.97;;;;;;;12.21;100.00;93787.38;4997127;28;20739;-55
2023/06/15 01:28:03;;;;;;;12.07;8.73;;;;;;;12.22;100.00;93786.97;4992108;28;20050;-55
2023/06/15 01:30:38;;;;;;;10.48;8.13;;;;;;;12.27;100.00;93782.91;4994264;28;20050;-57
2023/06/15 01:33:04;;;;;;;11.52;8.23;;;;;;;12.19;100.00;93785.84;4998794;28;20052;-54
2023/06/15 01:35:31;;;;;;;11.40;8.33;;;;;;;12.12;100.00;93785.22;4996999;28;20045;-57
2023/06/15 01:37:58;;;;;;;10.55;8.00;;;;;;;12.12;100.00;93780.50;5013631;28;20053;-57
2023/06/15 01:40:25;;;;;;;11.55;8.70;;;;;;;12.08;100.00;93784.53;5029578;28;20049;-60
2023/06/15 01:42:52;;;;;;;12.57;8.43;;;;;;;11.92;100.00;93782.53;5028219;28;20052;-56
2023/06/15 01:45:20;;;;;;;11.98;8.57;;;;;;;11.88;100.00;93784.56;5029493;28;20513;-53
2023/06/15 01:47:49;;;;;;;12.93;8.17;;;;;;;11.92;100.00;93785.28;5004390;28;20344;-55
2023/06/15 01:50:16;;;;;;;12.52;8.68;;;;;;;11.87;100.00;93786.56;4989456;28;20783;-57
2023/06/15 01:52:43;;;;;;;11.73;8.52;;;;;;;11.90;100.00;93785.72;4990242;28;20411;-57
2023/06/15 01:55:10;;;;;;;11.88;8.32;;;;;;;11.87;100.00;93781.06;5003347;28;20072;-56
2023/06/15 01:57:38;;;;;;;11.50;8.40;;;;;;;11.79;100.00;93783.19;5010717;28;20041;-58
2023/06/15 02:00:09;;;;;;;12.80;8.50;;;;;;;11.60;100.00;93793.00;5028824;28;20045;-60
2023/06/15 02:02:35;;;;;;;32.17;19.83;;;;;;;11.65;100.00;93785.44;5025597;28;20053;-56
2023/06/15 02:05:04;;;;;;;17.13;11.55;;;;;;;11.66;100.00;93784.25;5025988;28;20041;-60
2023/06/15 02:07:30;;;;;;;13.90;9.35;;;;;;;11.68;100.00;93787.34;5007455;28;20046;-57
2023/06/15 02:09:57;;;;;;;12.05;8.75;;;;;;;11.59;100.00;93787.94;5026693;28;20520;-59
2023/06/15 02:12:24;;;;;;;12.40;8.63;;;;;;;11.55;100.00;93789.97;5029246;28;20040;-54
2023/06/15 02:14:51;;;;;;;12.60;8.45;;;;;;;11.53;100.00;93787.66;5028744;28;20465;-55
2023/06/15 02:17:18;;;;;;;12.65;8.90;;;;;;;11.52;100.00;93786.09;5008627;28;20071;-56
2023/06/15 02:19:46;;;;;;;13.85;8.80;;;;;;;11.46;100.00;93789.78;5009150;28;20054;-60
2023/06/15 02:22:15;;;;;;;12.43;8.77;;;;;;;11.45;100.00;93790.97;5004081;28;20057;-57
2023/06/15 02:24:42;;;;;;;12.40;8.70;;;;;;;11.44;100.00;93794.94;5009238;28;20119;-59
2023/06/15 02:27:10;;;;;;;12.15;8.85;;;;;;;11.45;100.00;93794.50;5008525;28;20888;-61
2023/06/15 02:29:36;;;;;;;12.07;8.30;;;;;;;11.37;100.00;93795.84;5014793;28;20316;-57
2023/06/15 02:32:03;;;;;;;12.23;8.90;;;;;;;11.12;100.00;93802.59;5020858;28;20049;-60
2023/06/15 02:34:30;;;;;;;12.48;8.63;;;;;;;11.28;100.00;93803.88;5007574;28;20053;-56
2023/06/15 02:36:58;;;;;;;11.23;8.40;;;;;;;11.33;100.00;93801.41;5027960;28;20037;-53
2023/06/15 02:39:25;;;;;;;12.98;9.45;;;;;;;11.34;100.00;93802.19;5028609;28;20437;-58
2023/06/15 02:41:51;;;;;;;15.30;9.18;;;;;;;11.32;100.00;93808.09;5027664;28;20052;-54
2023/06/15 02:44:18;;;;;;;13.23;8.52;;;;;;;11.30;100.00;93807.75;5013093;28;20052;-56
2023/06/15 02:46:45;;;;;;;12.43;9.02;;;;;;;11.25;100.00;93810.22;4999687;28;20037;-63
2023/06/15 02:49:11;;;;;;;12.23;9.00;;;;;;;11.27;100.00;93805.06;5015345;28;20052;-58
2023/06/15 02:51:39;;;;;;;12.18;8.90;;;;;;;11.13;100.00;93806.13;5024298;28;20398;-56
2023/06/15 02:54:06;;;;;;;12.15;8.70;;;;;;;11.17;100.00;93813.09;5024258;28;20049;-59
2023/06/15 02:56:36;;;;;;;11.25;8.90;;;;;;;11.13;100.00;93804.16;5023482;28;20045;-57
2023/06/15 02:59:02;;;;;;;11.70;8.63;;;;;;;11.15;100.00;93812.00;5019505;28;20067;-57
2023/06/15 03:01:37;;;;;;;14.33;8.73;;;;;;;11.04;100.00;93812.16;5023737;28;20053;-59
2023/06/15 03:04:09;;;;;;;13.95;8.75;;;;;;;10.95;100.00;93814.72;5024102;28;20038;-54
2023/06/15 03:06:37;;;;;;;16.13;8.93;;;;;;;10.96;100.00;93813.50;5021983;28;20168;-59
2023/06/15 03:09:06;;;;;;;13.00;8.60;;;;;;;10.95;100.00;93820.97;5021478;28;20051;-60
2023/06/15 03:11:34;;;;;;;12.50;8.73;;;;;;;10.92;100.00;93821.03;5008667;28;20375;-56
2023/06/15 03:14:00;;;;;;;13.47;8.87;;;;;;;10.93;100.00;93820.63;5003122;28;20076;-57
2023/06/15 03:16:27;;;;;;;13.75;9.27;;;;;;;10.95;100.00;93825.69;5000506;28;20077;-56
2023/06/15 03:18:54;;;;;;;13.07;9.02;;;;;;;10.98;100.00;93825.59;4996869;28;20041;-54
2023/06/15 03:21:22;;;;;;;13.32;8.75;;;;;;;10.83;100.00;93826.31;5002689;28;20040;-54
2023/06/15 03:23:50;;;;;;;12.60;8.98;;;;;;;10.77;100.00;93826.00;5003445;28;20409;-57
2023/06/15 03:26:17;;;;;;;14.33;8.70;;;;;;;10.74;100.00;93829.56;5013225;28;20052;-57
2023/06/15 03:28:45;;;;;;;11.70;8.68;;;;;;;10.86;100.00;93830.94;5010634;28;20053;-56
2023/06/15 03:31:17;;;;;;;13.73;9.13;;;;;;;10.92;100.00;93824.53;4993461;28;20057;-55
2023/06/15 03:33:47;;;;;;;12.68;8.85;;;;;;;10.95;100.00;93828.44;5001147;28;20054;-61
2023/06/15 03:36:14;;;;;;;12.43;8.70;;;;;;;10.99;100.00;93835.41;4997278;28;20054;-54
2023/06/15 03:38:41;;;;;;;12.07;9.00;;;;;;;11.04;100.00;93836.88;5013000;28;20050;-63
2023/06/15 03:41:08;;;;;;;11.93;8.90;;;;;;;11.08;100.00;93831.34;5015061;28;20045;-57
2023/06/15 03:43:38;;;;;;;12.70;9.02;;;;;;;11.13;100.00;93831.63;5020590;28;20119;-64
2023/06/15 03:46:05;;;;;;;11.52;8.90;;;;;;;11.17;100.00;93837.81;5009600;28;20048;-57
2023/06/15 03:48:32;;;;;;;12.73;9.40;;;;;;;11.24;100.00;93836.13;5005786;28;20107;-56
2023/06/15 03:50:59;;;;;;;13.17;9.90;;;;;;;11.16;100.00;93841.75;4997609;28;20042;-59
2023/06/15 03:53:26;;;;;;;13.02;9.38;;;;;;;11.24;100.00;93841.63;4993926;28;20379;-56
2023/06/15 03:55:53;;;;;;;13.38;9.43;;;;;;;11.28;100.00;93839.59;4994690;28;20061;-54
2023/06/15 03:58:19;;;;;;;13.40;8.60;;;;;;;11.09;100.00;93847.41;4998100;28;20042;-56
2023/06/15 04:00:46;;;;;;;15.23;9.02;;;;;;;10.84;100.00;93850.56;4996313;28;20065;-56
2023/06/15 04:03:14;;;;;;;14.60;8.90;;;;;;;11.03;100.00;93840.03;4997787;28;20042;-60
2023/06/15 04:05:42;;;;;;;13.23;8.23;;;;;;;11.28;100.00;93842.34;5010734;28;20053;-55
2023/06/15 04:08:09;;;;;;;17.00;9.00;;;;;;;11.45;100.00;93851.44;5005037;28;20050;-57
2023/06/15 04:10:35;;;;;;;12.50;8.45;;;;;;;11.63;100.00;93851.88;5001252;28;20416;-59
2023/06/15 04:13:03;;;;;;;12.73;8.60;;;;;;;11.79;100.00;93854.66;5000131;28;20042;-56
2023/06/15 04:15:31;;;;;;;11.83;8.07;;;;;;;11.92;100.00;93854.81;5003274;28;20382;-54
2023/06/15 04:18:00;;;;;;;11.07;8.80;;;;;;;11.93;100.00;93856.38;4997897;28;20077;-57
2023/06/15 04:20:28;;;;;;;15.80;9.20;;;;;;;11.80;100.00;93866.44;5004347;28;20046;-54
2023/06/15 04:22:56;;;;;;;12.93;8.88;;;;;;;11.93;100.00;93863.81;4999237;28;20062;-57
2023/06/15 04:25:23;;;;;;;14.95;9.35;;;;;;;11.96;100.00;93866.50;5014354;28;20046;-55
2023/06/15 04:27:52;;;;;;;11.47;8.97;;;;;;;12.86;100.00;93867.22;5008957;28;20034;-60
2023/06/15 04:30:24;;;;;;;12.05;8.65;;;;;;;14.24;92.01;93859.53;5002419;28;20042;-57
2023/06/15 04:32:59;;;;;;;13.43;9.02;;;;;;;15.79;83.61;93869.88;4998803;28;20042;-58
2023/06/15 04:35:31;;;;;;;13.27;9.48;;;;;;;16.32;81.09;93869.13;5014890;28;20044;-57
2023/06/15 04:37:58;;;;;;;11.85;9.55;;;;;;;15.84;81.70;93868.53;4999616;28;20061;-59
2023/06/15 04:40:25;;;;;;;12.70;9.70;;;;;;;15.08;83.70;93875.88;4996408;28;20449;-56
2023/06/15 04:42:53;;;;;;;13.50;9.80;;;;;;;14.43;87.08;93875.13;4996886;28;20406;-57
2023/06/15 04:45:20;;;;;;;12.27;8.80;;;;;;;14.12;90.10;93883.91;4999396;28;20061;-57
2023/06/15 04:47:47;;;;;;;12.25;9.68;;;;;;;12.96;97.55;93882.69;4995929;28;20111;-57
2023/06/15 04:50:14;;;;;;;11.93;9.43;;;;;;;12.92;99.70;93889.50;4994033;28;20069;-57
2023/06/15 04:52:41;;;;;;;14.50;10.20;;;;;;;12.97;99.28;93881.47;4995082;28;20574;-60
2023/06/15 04:55:08;;;;;;;14.27;9.45;;;;;;;13.49;96.56;93877.03;4997969;28;20058;-56
2023/06/15 04:57:35;;;;;;;13.85;9.73;;;;;;;13.52;96.64;93889.16;5002523;28;20048;-56
2023/06/15 05:00:04;;;;;;;16.67;10.63;;;;;;;13.85;95.03;93875.28;4998679;28;20092;-60
2023/06/15 05:02:31;;;;;;;16.35;10.00;;;;;;;13.99;94.37;93872.88;5005580;28;20428;-57
2023/06/15 05:04:58;;;;;;;14.47;9.40;;;;;;;14.24;93.32;93876.09;5007015;28;20413;-56
2023/06/15 05:07:25;;;;;;;14.65;9.68;;;;;;;14.19;93.03;93877.44;5006494;28;20427;-59
2023/06/15 05:09:51;;;;;;;12.73;9.13;;;;;;;14.56;90.61;93881.44;5008859;28;20047;-57
2023/06/15 05:12:18;;;;;;;14.13;9.48;;;;;;;14.50;91.20;93877.66;5001804;28;20052;-56
2023/06/15 05:14:45;;;;;;;14.02;9.75;;;;;;;14.47;90.08;93884.06;4991287;28;20411;-57
2023/06/15 05:17:12;;;;;;;13.70;9.93;;;;;;;14.80;89.36;93885.84;4989905;28;20046;-57
2023/06/15 05:19:39;;;;;;;13.20;10.10;;;;;;;15.05;86.08;93883.06;4997851;28;20116;-58
2023/06/15 05:22:06;;;;;;;13.93;10.10;;;;;;;15.05;88.03;93887.78;4998256;28;20049;-57
2023/06/15 05:24:34;;;;;;;11.38;9.25;;;;;;;15.98;85.21;93882.63;4992677;28;20042;-59
2023/06/15 05:27:02;;;;;;;13.45;10.18;;;;;;;19.16;71.75;93879.91;4995267;28;20087;-57
2023/06/15 05:29:29;;;;;;;11.70;9.30;;;;;;;18.89;68.01;93878.03;4993540;28;20038;-58
2023/06/15 05:31:56;;;;;;;12.57;9.80;;;;;;;20.02;62.35;93878.41;4995711;28;20084;-61
2023/06/15 05:34:23;;;;;;;16.67;11.02;;;;;;;21.54;57.03;93877.25;4990901;28;20060;-58
2023/06/15 05:36:49;;;;;;;13.55;10.13;;;;;;;23.47;49.45;93877.78;5001458;28;20050;-56
2023/06/15 05:39:20;;;;;;;15.27;9.75;;;;;;;24.42;45.64;93876.59;5006030;28;20049;-59
2023/06/15 05:41:47;;;;;;;13.27;10.10;;;;;;;23.18;46.45;93884.47;5011922;28;20050;-57
2023/06/15 05:44:14;;;;;;;14.57;10.25;;;;;;;22.16;48.40;93891.94;5009173;28;20050;-61
2023/06/15 05:46:42;;;;;;;16.05;12.10;;;;;;;20.18;53.04;93890.31;5020582;28;20681;-59
2023/06/15 05:49:08;;;;;;;13.63;11.25;;;;;;;19.55;55.77;93894.66;5013155;28;20414;-58
2023/06/15 05:51:35;;;;;;;16.77;12.65;;;;;;;18.80;59.07;93887.19;5013548;28;20368;-61
2023/06/15 05:54:02;;;;;;;14.90;11.27;;;;;;;19.07;61.21;93900.19;5012311;28;20506;-57
2023/06/15 05:56:30;;;;;;;16.42;12.27;;;;;;;19.22;61.20;93896.75;5005938;28;20033;-58
2023/06/15 05:58:57;;;;;;;21.05;11.80;;;;;;;21.11;55.36;93896.44;4995349;28;20046;-58
2023/06/15 06:01:23;;;;;;;16.65;12.45;;;;;;;23.40;47.19;93887.41;5001197;28;20037;-61
2023/06/15 06:03:50;;;;;;;15.43;11.73;;;;;;;21.63;50.33;93891.09;4993770;28;20049;-58
2023/06/15 06:06:17;;;;;;;21.27;11.77;;;;;;;23.79;45.84;93889.66;5001851;28;20446;-64
2023/06/15 06:08:43;;;;;;;18.50;11.20;;;;;;;23.08;45.73;93892.28;4995490;28;20062;-57
2023/06/15 06:11:10;;;;;;;14.35;11.23;;;;;;;23.28;44.95;93897.00;4997283;28;20050;-58
2023/06/15 06:13:37;;;;;;;18.30;11.73;;;;;;;22.90;46.36;93896.22;4994315;28;20184;-58
2023/06/15 06:16:04;;;;;;;14.15;10.80;;;;;;;20.26;52.77;93905.41;4997071;28;20497;-62
2023/06/15 06:18:31;;;;;;;14.33;10.77;;;;;;;20.65;52.58;93902.56;5004232;28;20042;-58
2023/06/15 06:20:58;;;;;;;13.43;10.48;;;;;;;20.48;54.32;93908.59;5017442;28;20053;-60
2023/06/15 06:23:24;;;;;;;18.25;11.50;;;;;;;19.90;53.88;93901.69;5021467;28;20514;-57
2023/06/15 06:25:51;;;;;;;13.55;11.45;;;;;;;22.43;49.83;93899.09;5023415;28;20041;-58
2023/06/15 06:28:18;;;;;;;15.55;12.43;;;;;;;22.31;50.02;93903.81;5012973;28;20057;-62
2023/06/15 06:30:44;;;;;;;20.53;12.50;;;;;;;20.39;54.81;93908.69;5000936;28;20530;-59
2023/06/15 06:33:11;;;;;;;13.27;11.50;;;;;;;21.17;55.80;93897.28;4996643;28;20038;-61
2023/06/15 06:35:38;;;;;;;15.52;9.93;;;;;;;25.59;45.45;93900.31;5004003;28;20068;-57
2023/06/15 06:38:05;;;;;;;18.73;12.02;;;;;;;22.32;48.44;93905.34;5016714;28;20049;-58
2023/06/15 06:40:32;;;;;;;13.52;10.50;;;;;;;22.24;49.84;93898.66;5026562;28;20050;-58
2023/06/15 06:42:58;;;;;;;13.20;9.53;;;;;;;22.63;49.02;93897.50;5027567;28;20045;-61
2023/06/15 06:45:25;;;;;;;13.32;9.20;;;;;;;23.48;47.28;93894.09;4995210;28;20124;-58
2023/06/15 06:47:56;;;;;;;15.43;11.05;;;;;;;20.89;52.28;93899.66;4989384;28;20050;-60
2023/06/15 06:50:23;;;;;;;14.93;10.40;;;;;;;21.51;51.92;93894.97;4989886;28;20104;-61
2023/06/15 06:52:50;;;;;;;13.20;11.80;;;;;;;20.88;54.48;93901.66;4988011;28;20069;-55
2023/06/15 06:55:16;;;;;;;18.27;11.43;;;;;;;22.52;52.09;93898.19;4987975;28;20099;-57
2023/06/15 06:57:43;;;;;;;14.85;11.40;;;;;;;22.08;50.40;93907.59;5028690;28;20052;-57
2023/06/15 07:00:11;;;;;;;15.85;11.48;;;;;;;23.80;48.16;93901.63;5028372;28;20053;-58
2023/06/15 07:02:38;;;;;;;13.50;10.73;;;;;;;25.14;43.39;93896.81;5028940;28;20042;-58
2023/06/15 07:05:05;;;;;;;11.10;9.80;;;;;;;25.62;41.76;93892.94;5028088;28;20056;-59
2023/06/15 07:07:32;;;;;;;11.87;9.57;;;;;;;22.49;46.90;93899.91;5025456;28;20049;-58
2023/06/15 07:09:58;;;;;;;10.45;8.25;;;;;;;27.35;39.62;93892.47;5026528;28;20079;-57
2023/06/15 07:12:25;;;;;;;8.68;7.45;;;;;;;28.41;37.57;93886.13;5028187;28;20046;-58
2023/06/15 07:14:52;;;;;;;13.88;8.82;;;;;;;29.02;33.37;93887.31;5027630;28;20045;-62
2023/06/15 07:17:19;;;;;;;11.73;9.70;;;;;;;24.33;43.61;93891.63;5028229;28;20106;-59
2023/06/15 07:19:46;;;;;;;13.87;7.70;;;;;;;29.16;36.42;93884.56;5026965;28;20501;-58
2023/06/15 07:22:12;;;;;;;9.48;7.47;;;;;;;32.06;30.81;93878.50;5017589;28;20045;-62
2023/06/15 07:24:39;;;;;;;8.57;7.20;;;;;;;30.57;32.62;93882.63;5028625;28;20063;-58
2023/06/15 07:27:06;;;;;;;10.05;7.50;;;;;;;32.54;28.12;93884.56;5028477;28;20064;-58
2023/06/15 07:29:33;;;;;;;9.35;6.40;;;;;;;32.99;27.09;93877.53;5028398;28;20042;-58
2023/06/15 07:32:00;;;;;;;12.07;7.33;;;;;;;29.90;29.98;93884.75;5028280;28;20045;-64
2023/06/15 07:34:27;;;;;;;8.30;7.00;;;;;;;30.42;30.68;93888.88;5027521;28;20162;-60
2023/06/15 07:36:53;;;;;;;7.55;5.80;;;;;;;32.33;28.14;93884.69;5028363;28;20048;-57
2023/06/15 07:39:20;;;;;;;9.48;6.40;;;;;;;34.14;24.06;93879.66;5028780;28;20079;-58
2023/06/15 07:41:47;;;;;;;8.82;6.28;;;;;;;30.64;24.89;93881.94;5028284;28;20571;-61
2023/06/15 07:44:14;;;;;;;9.60;5.50;;;;;;;30.83;27.02;93886.69;5027559;28;20111;-59
2023/06/15 07:46:41;;;;;;;6.85;5.60;;;;;;;30.26;27.09;93879.44;5031759;28;20040;-62
2023/06/15 07:49:09;;;;;;;7.50;5.90;;;;;;;29.30;28.79;93879.69;5031024;28;20653;-63
2023/06/15 07:51:36;;;;;;;7.85;5.80;;;;;;;29.15;29.65;93886.59;5032167;28;20057;-62
2023/06/15 07:54:16;;;;;;;8.43;5.97;;;;;;;30.65;25.70;93877.06;5031417;28;21579;-61
2023/06/15 07:56:45;;;;;;;8.97;5.83;;;;;;;31.31;24.37;93884.53;5032476;28;20398;-59
2023/06/15 07:59:12;;;;;;;8.90;5.03;;;;;;;31.16;23.47;93873.06;5032018;28;20532;-58
2023/06/15 08:01:39;;;;;;;7.03;5.35;;;;;;;31.25;22.90;93869.75;5032287;28;20072;-62
2023/06/15 08:04:06;;;;;;;7.00;5.00;;;;;;;33.56;20.12;93865.81;5031866;28;20041;-58
2023/06/15 08:06:33;;;;;;;9.02;4.90;;;;;;;32.29;20.00;93875.75;5032379;28;20149;-58
2023/06/15 08:08:59;;;;;;;9.13;4.60;;;;;;;32.33;20.23;93867.63;5031653;28;20049;-61
2023/06/15 08:11:27;;;;;;;6.82;4.45;;;;;;;31.59;20.83;93875.34;5032169;28;20038;-58
2023/06/15 08:13:54;;;;;;;6.93;4.78;;;;;;;30.40;22.21;93868.09;5031668;28;20041;-65
2023/06/15 08:16:20;;;;;;;8.45;6.55;;;;;;;25.35;31.33;93874.84;5019742;28;20367;-61
2023/06/15 08:18:47;;;;;;;10.52;7.20;;;;;;;24.70;33.88;93891.44;5023197;28;20034;-57
2023/06/15 08:21:16;;;;;;;11.37;7.27;;;;;;;25.05;33.70;93883.78;5015335;28;20064;-58
2023/06/15 08:23:43;;;;;;;12.43;7.13;;;;;;;27.86;29.76;93884.22;5020015;28;20148;-58
2023/06/15 08:26:10;;;;;;;10.80;6.60;;;;;;;26.21;30.60;93880.44;5029961;28;20502;-59
2023/06/15 08:28:36;;;;;;;7.05;5.72;;;;;;;28.23;27.17;93885.63;5032013;28;20050;-58
2023/06/15 08:31:18;;;;;;;9.43;6.18;;;;;;;24.93;31.70;93885.81;5016604;28;20244;-58
2023/06/15 08:33:45;;;;;;;11.03;7.10;;;;;;;25.43;32.61;93882.22;5008109;28;20045;-62
2023/06/15 08:36:12;;;;;;;9.20;7.13;;;;;;;23.19;36.40;93894.41;5021365;28;20033;-59
2023/06/15 08:38:39;;;;;;;11.80;7.97;;;;;;;22.51;40.43;93891.03;5011596;28;20120;-58
2023/06/15 08:41:06;;;;;;;9.35;7.20;;;;;;;23.79;37.65;93888.91;5029792;28;20138;-58
2023/06/15 08:43:33;;;;;;;11.13;7.53;;;;;;;22.11;39.13;93890.63;5031957;28;20045;-57
2023/06/15 08:46:02;;;;;;;9.77;7.43;;;;;;;22.88;40.12;93896.69;5031199;28;20042;-57
2023/06/15 08:48:31;;;;;;;10.63;7.60;;;;;;;22.02;40.96;93896.34;5001689;28;20149;-57
2023/06/15 08:50:59;;;;;;;8.82;6.80;;;;;;;23.99;36.35;93893.56;5009862;28;20050;-57
2023/06/15 08:53:28;;;;;;;7.85;5.93;;;;;;;24.39;33.50;93886.81;4995237;28;20034;-57
2023/06/15 08:55:55;;;;;;;9.68;6.03;;;;;;;26.94;27.86;93893.28;5004764;28;20487;-57
2023/06/15 08:58:22;;;;;;;8.63;5.40;;;;;;;25.37;28.75;93889.13;4989973;28;20060;-58
2023/06/15 09:00:50;;;;;;;9.10;5.53;;;;;;;28.27;26.02;93885.28;5001540;28;20119;-58
2023/06/15 09:03:20;;;;;;;7.25;5.28;;;;;;;30.41;22.79;93886.59;5007126;28;20104;-58
2023/06/15 09:05:47;;;;;;;8.75;5.05;;;;;;;29.87;21.77;93880.22;4991954;28;20050;-58
2023/06/15 09:08:14;;;;;;;10.80;5.43;;;;;;;26.77;26.11;93884.97;4991337;28;20048;-57
2023/06/15 09:10:41;;;;;;;6.87;5.30;;;;;;;26.31;26.76;93887.28;5006945;28;20440;-61
2023/06/15 09:13:16;;;;;;;6.93;5.00;;;;;;;27.38;25.83;93888.59;5005950;28;20419;-61
2023/06/15 09:15:43;;;;;;;7.82;5.80;;;;;;;26.59;26.52;93889.19;5017946;28;20516;-58
2023/06/15 09:18:14;;;;;;;7.05;5.40;;;;;;;26.13;26.91;93890.72;5025829;28;20056;-57
2023/06/15 09:20:42;;;;;;;7.70;5.80;;;;;;;25.81;27.40;93888.25;5030901;28;20110;-60
2023/06/15 09:23:11;;;;;;;6.83;5.40;;;;;;;26.38;27.13;93893.66;5030150;28;20073;-57
2023/06/15 09:25:41;;;;;;;10.02;5.68;;;;;;;25.89;27.51;93888.47;5030821;28;20046;-57
2023/06/15 09:28:08;;;;;;;9.02;6.03;;;;;;;23.67;30.30;93891.63;5028250;28;20050;-58
2023/06/15 09:30:37;;;;;;;9.07;6.00;;;;;;;24.99;28.16;93889.44;5012096;28;20042;-60
2023/06/15 09:33:15;;;;;;;7.45;5.18;;;;;;;26.97;26.22;93885.88;4990748;28;20053;-60
2023/06/15 09:36:02;;;;;;;6.00;4.93;;;;;;;29.56;22.93;93882.56;5006471;28;20505;-61
2023/06/15 09:38:32;;;;;;;7.68;4.95;;;;;;;31.02;21.07;93878.78;5023006;28;20045;-62
2023/06/15 09:41:03;;;;;;;8.45;5.30;;;;;;;28.36;22.68;93887.75;5029824;28;20041;-61
2023/06/15 09:43:33;;;;;;;7.03;5.15;;;;;;;27.97;23.29;93889.03;5030154;28;20171;-57
2023/06/15 09:46:08;;;;;;;8.43;4.90;;;;;;;28.33;23.41;93885.97;5030024;28;20106;-57
2023/06/15 09:48:39;;;;;;;7.73;5.10;;;;;;;27.07;24.56;93893.44;5005683;28;20052;-58
2023/06/15 09:51:06;;;;;;;7.90;5.50;;;;;;;25.99;26.51;93892.56;5029519;28;20418;-57
2023/06/15 09:53:33;;;;;;;8.00;5.72;;;;;;;26.03;26.49;93895.88;5028575;28;20060;-59
2023/06/15 09:56:01;;;;;;;11.20;5.57;;;;;;;24.59;27.80;93894.25;5029840;28;20044;-63
2023/06/15 09:58:39;;;;;;;7.90;5.60;;;;;;;24.72;27.87;93894.50;5029943;28;20046;-63
2023/06/15 10:01:09;;;;;;;8.53;6.10;;;;;;;23.78;28.80;93896.53;5029879;28;20038;-59
2023/06/15 10:03:37;;;;;;;9.35;5.65;;;;;;;25.57;27.13;93897.25;5017277;28;20041;-61
2023/06/15 10:06:16;;;;;;;8.65;5.45;;;;;;;27.99;23.79;93892.06;5029596;28;20114;-63
2023/06/15 10:08:45;;;;;;;7.93;5.22;;;;;;;26.33;26.23;93886.78;5028418;28;20482;-57
2023/06/15 10:11:12;;;;;;;6.68;5.40;;;;;;;26.00;25.88;93902.53;5029537;28;20049;-60
2023/06/15 10:13:48;;;;;;;6.80;5.30;;;;;;;26.98;24.92;93895.81;5016645;28;20126;-61
2023/06/15 10:16:17;;;;;;;8.68;5.20;;;;;;;27.43;23.93;93896.22;5028845;28;21368;-58
2023/06/15 10:18:49;;;;;;;5.97;4.80;;;;;;;31.28;20.33;93887.72;5029609;28;20398;-61
2023/06/15 10:21:20;;;;;;;8.30;4.80;;;;;;;32.79;19.53;93884.88;5029387;28;20088;-58
2023/06/15 10:23:50;;;;;;;9.32;4.97;;;;;;;30.79;20.78;93886.28;5012445;28;20473;-58
2023/06/15 10:26:17;;;;;;;5.37;4.80;;;;;;;28.10;23.28;93899.63;5011513;28;20046;-59
2023/06/15 10:28:51;;;;;;;7.18;5.43;;;;;;;24.79;27.69;93895.28;5025832;28;20057;-62
2023/06/15 10:31:25;;;;;;;6.50;5.05;;;;;;;26.04;26.54;93891.78;5016738;28;21499;-58
2023/06/15 10:34:03;;;;;;;10.55;5.10;;;;;;;24.39;29.14;93892.41;5008937;28;20037;-60
2023/06/15 10:36:53;;;;;;;7.00;5.10;;;;;;;24.55;28.82;93892.97;5009734;28;20061;-58
2023/06/15 10:39:33;;;;;;;7.30;5.80;;;;;;;24.95;29.04;93899.38;5000813;28;20801;-61
2023/06/15 10:42:06;;;;;;;7.82;5.90;;;;;;;26.24;27.52;93901.91;5009798;28;20045;-57
2023/06/15 10:44:34;;;;;;;8.90;5.75;;;;;;;26.75;26.26;93900.88;5029302;28;20060;-61
2023/06/15 10:47:08;;;;;;;10.30;5.70;;;;;;;27.92;25.19;93898.28;5028636;28;20069;-58
2023/06/15 10:49:36;;;;;;;7.50;5.80;;;;;;;28.07;24.22;93909.13;5011443;28;20042;-57
2023/06/15 10:52:05;;;;;;;8.43;5.47;;;;;;;27.21;25.09;93904.88;5003030;28;20507;-57
2023/06/15 10:54:35;;;;;;;7.43;5.25;;;;;;;28.71;23.37;93893.69;4990036;28;20096;-57
2023/06/15 10:57:02;;;;;;;7.15;5.65;;;;;;;28.51;23.82;93892.94;4989494;28;20043;-61
2023/06/15 10:59:51;;;;;;;6.40;5.45;;;;;;;29.48;23.19;93901.50;4989745;28;20050;-57
2023/06/15 11:02:26;;;;;;;6.97;5.50;;;;;;;27.45;24.52;93901.34;5000914;28;20871;-61
2023/06/15 11:05:10;;;;;;;6.43;5.40;;;;;;;27.35;25.53;93897.34;5025033;28;20118;-57
2023/06/15 11:07:40;;;;;;;9.77;5.90;;;;;;;27.71;25.63;93906.47;5028984;28;20070;-58
2023/06/15 11:10:19;;;;;;;7.85;5.80;;;;;;;26.80;26.95;93891.59;5028166;28;20046;-64
2023/06/15 11:12:58;;;;;;;8.05;5.72;;;;;;;26.93;26.33;93902.28;5028803;28;20045;-57
2023/06/15 11:15:31;;;;;;;8.25;5.80;;;;;;;26.89;26.38;93908.94;5000234;28;20807;-57
2023/06/15 11:18:24;;;;;;;7.03;5.80;;;;;;;26.88;26.12;93915.09;4989040;28;20431;-59
2023/06/15 11:20:54;;;;;;;9.00;5.80;;;;;;;26.95;26.62;93905.34;4988235;28;20042;-55
2023/06/15 11:23:23;;;;;;;8.43;6.13;;;;;;;26.63;26.81;93908.63;4997570;28;20375;-60
2023/06/15 11:25:54;;;;;;;7.53;5.57;;;;;;;26.51;27.00;93907.91;5006600;28;20044;-56
2023/06/15 11:28:24;;;;;;;7.00;5.60;;;;;;;25.85;27.80;93907.66;5009330;28;20177;-58
2023/06/15 11:30:54;;;;;;;6.87;5.80;;;;;;;26.47;26.77;93905.34;4995476;28;20038;-57